Time;durP1;ratioP1;P1;durP2;ratioP2;P2;SDS_P1;SDS_P2;PMS_P1;PMS_P2;Temp;Humidity;BMP_temperature;BMP_pressure;BME280_temperature;BME280_humidity;BME280_pressure;Samples;Min_cycle;Max_cycle;Signal;HPM_P1;HPM_P2
2022/07/28 00:01:53;;;;;;;;;1.00;1.00;34.50;99.90;;;;;;4851084;29;8872;-72
2022/07/28 00:04:23;;;;;;;;;1.40;1.40;34.40;99.90;;;;;;4862000;29;8947;-71
2022/07/28 00:06:54;;;;;;;;;3.20;3.20;34.30;99.90;;;;;;4845501;29;8869;-71
2022/07/28 00:09:26;;;;;;;;;5.00;4.00;34.10;99.90;;;;;;4847543;29;8873;-71
2022/07/28 00:11:58;;;;;;;;;2.00;2.00;34.10;99.90;;;;;;4850688;29;8833;-71
2022/07/28 00:14:29;;;;;;;;;3.20;2.80;34.00;99.90;;;;;;4849909;29;8860;-72
2022/07/28 00:17:00;;;;;;;;;4.00;3.00;33.90;99.90;;;;;;4851048;29;8869;-72
2022/07/28 00:19:37;;;;;;;;;2.60;1.20;33.80;99.90;;;;;;4833903;29;8880;-71
2022/07/28 00:22:07;;;;;;;;;4.00;3.00;33.70;99.90;;;;;;4833970;29;8885;-70
2022/07/28 00:24:42;;;;;;;;;3.00;1.20;33.60;99.90;;;;;;4851327;29;8895;-71
2022/07/28 00:27:18;;;;;;;;;2.40;2.00;33.60;99.90;;;;;;4849206;29;8872;-70
2022/07/28 00:29:51;;;;;;;;;3.00;3.00;33.40;99.90;;;;;;4840638;29;8898;-70
2022/07/28 00:32:21;;;;;;;;;3.60;3.00;33.30;99.90;;;;;;4848895;29;8850;-69
2022/07/28 00:34:52;;;;;;;;;2.60;2.60;33.30;99.90;;;;;;4845482;29;8865;-70
2022/07/28 00:37:22;;;;;;;;;3.40;2.20;33.10;99.90;;;;;;4849966;29;9069;-70
2022/07/28 00:39:57;;;;;;;;;3.20;3.00;33.10;99.90;;;;;;4850111;29;8866;-70
2022/07/28 00:42:27;;;;;;;;;3.80;3.00;33.10;99.90;;;;;;4852306;29;8846;-71
2022/07/28 00:44:57;;;;;;;;;3.00;2.00;33.10;99.90;;;;;;4843890;29;8881;-70
2022/07/28 00:47:28;;;;;;;;;2.80;2.60;32.90;99.90;;;;;;4848031;29;8881;-69
2022/07/28 00:50:05;;;;;;;;;5.60;3.00;32.80;99.90;;;;;;4848396;29;8878;-69
2022/07/28 00:52:35;;;;;;;;;2.00;2.00;32.70;99.90;;;;;;4845105;29;8831;-70
2022/07/28 00:55:09;;;;;;;;;2.60;2.60;32.80;99.90;;;;;;4851009;29;8930;-71
2022/07/28 00:57:41;;;;;;;;;2.80;2.40;32.60;99.90;;;;;;4865362;29;8854;-73
2022/07/28 01:00:13;;;;;;;;;2.80;2.80;32.50;99.90;;;;;;4848371;29;8869;-72
2022/07/28 01:02:45;;;;;;;;;4.20;2.00;32.30;99.90;;;;;;4834652;29;8868;-73
2022/07/28 01:05:18;;;;;;;;;1.00;1.00;32.40;99.90;;;;;;4832555;29;8912;-73
2022/07/28 01:08:27;;;;;;;;;1.00;1.00;32.30;99.90;;;;;;4832639;29;8920;-71
2022/07/28 01:11:45;;;;;;;;;2.20;2.00;32.30;99.90;;;;;;4843677;29;8873;-73
2022/07/28 01:14:31;;;;;;;;;2.80;2.80;32.20;99.90;;;;;;4788626;29;8882;-73
2022/07/28 01:17:15;;;;;;;;;4.00;3.00;32.10;99.90;;;;;;4852297;29;8868;-72
2022/07/28 01:20:02;;;;;;;;;1.80;1.80;32.20;99.90;;;;;;4829385;29;8885;-75
2022/07/28 01:22:40;;;;;;;;;2.00;2.00;32.00;99.90;;;;;;4846465;29;8833;-72
2022/07/28 01:25:17;;;;;;;;;2.60;1.60;32.10;99.90;;;;;;4848524;29;8893;-72
2022/07/28 01:28:27;;;;;;;;;1.00;1.00;32.00;99.90;;;;;;4849266;29;8871;-73
2022/07/28 01:31:05;;;;;;;;;1.60;1.60;32.00;99.90;;;;;;4759773;29;8861;-73
2022/07/28 01:33:59;;;;;;;;;1.20;1.20;31.80;99.90;;;;;;4763431;29;8882;-73
2022/07/28 01:36:34;;;;;;;;;1.80;1.80;31.70;99.90;;;;;;4829387;29;9127;-73
2022/07/28 01:39:04;;;;;;;;;1.00;1.00;31.80;99.90;;;;;;4850020;29;8872;-72
2022/07/28 01:41:39;;;;;;;;;2.00;2.00;31.80;99.90;;;;;;4844212;29;8901;-74
2022/07/28 01:44:58;;;;;;;;;2.00;2.00;31.70;99.90;;;;;;4848130;29;8833;-72
2022/07/28 01:48:45;;;;;;;;;2.00;2.00;31.60;99.90;;;;;;4831870;29;9656;-73
2022/07/28 01:52:20;;;;;;;;;2.80;2.40;31.50;99.90;;;;;;4835585;29;8853;-73
2022/07/28 01:55:10;;;;;;;;;1.80;1.80;31.50;99.90;;;;;;4847109;29;8873;-74
2022/07/28 01:57:43;;;;;;;;;2.00;1.00;31.50;99.90;;;;;;4849024;29;8841;-73
2022/07/28 02:00:41;;;;;;;;;1.00;1.00;31.60;99.90;;;;;;4852395;29;8845;-74
2022/07/28 02:03:13;;;;;;;;;1.00;1.00;31.40;99.90;;;;;;4850214;29;8857;-74
2022/07/28 02:05:49;;;;;;;;;2.00;2.00;31.50;99.90;;;;;;4835474;29;8853;-73
2022/07/28 02:08:29;;;;;;;;;2.20;1.80;31.40;99.90;;;;;;4845624;29;8842;-73
2022/07/28 02:14:07;;;;;;;;;2.00;2.00;31.40;99.90;;;;;;4861554;29;8865;-74
2022/07/28 02:16:52;;;;;;;;;1.60;1.60;31.40;99.90;;;;;;4848536;29;8848;-74
2022/07/28 02:19:23;;;;;;;;;1.40;1.40;31.30;99.90;;;;;;4850414;29;8857;-74
2022/07/28 02:21:55;;;;;;;;;1.00;1.00;31.30;99.90;;;;;;4852737;29;8842;-72
2022/07/28 02:24:29;;;;;;;;;2.40;2.00;31.20;99.90;;;;;;4854792;29;9583;-75
2022/07/28 02:27:34;;;;;;;;;1.60;1.60;31.30;99.90;;;;;;4849273;29;9667;-73
2022/07/28 02:30:10;;;;;;;;;1.00;1.00;31.20;99.90;;;;;;4847270;29;8869;-73
2022/07/28 02:32:56;;;;;;;;;1.80;1.80;31.20;99.90;;;;;;4848205;29;8982;-74
2022/07/28 02:36:03;;;;;;;;;2.00;2.00;31.20;99.90;;;;;;4847939;29;8928;-74
2022/07/28 02:38:42;;;;;;;;;3.00;3.00;31.20;99.90;;;;;;4834688;29;8861;-74
2022/07/28 02:41:28;;;;;;;;;1.60;1.60;31.10;99.90;;;;;;4827403;29;9471;-74
2022/07/28 02:44:06;;;;;;;;;1.80;1.80;31.00;99.90;;;;;;4858273;29;8870;-72
2022/07/28 02:46:42;;;;;;;;;2.40;1.20;31.00;99.90;;;;;;4848291;29;8869;-75
2022/07/28 02:49:29;;;;;;;;;2.00;2.00;31.00;99.90;;;;;;4831157;29;8873;-73
2022/07/28 02:52:06;;;;;;;;;1.00;1.00;31.10;99.90;;;;;;4846283;29;8852;-74
2022/07/28 02:54:39;;;;;;;;;2.00;2.00;31.10;99.90;;;;;;4863313;29;8844;-74
2022/07/28 02:57:14;;;;;;;;;2.00;2.00;31.00;99.90;;;;;;4848980;29;8885;-73
2022/07/28 02:59:50;;;;;;;;;0.60;0.60;31.10;99.90;;;;;;4858766;29;8904;-74
2022/07/28 03:02:23;;;;;;;;;1.00;1.00;31.00;99.90;;;;;;4848457;29;9660;-75
2022/07/28 03:04:57;;;;;;;;;2.40;1.60;30.90;99.90;;;;;;4849962;29;8850;-75
2022/07/28 03:07:36;;;;;;;;;2.60;2.60;31.00;99.90;;;;;;4847797;29;8878;-74
2022/07/28 03:10:24;;;;;;;;;2.80;1.60;31.00;99.90;;;;;;4848227;29;8842;-74
2022/07/28 03:13:07;;;;;;;;;5.20;2.00;31.00;99.90;;;;;;4849015;29;8888;-70
2022/07/28 03:15:41;;;;;;;;;2.60;2.60;30.90;99.90;;;;;;4840826;29;9042;-71
2022/07/28 03:18:11;;;;;;;;;2.80;2.80;30.90;99.90;;;;;;4862639;29;9850;-73
2022/07/28 03:20:45;;;;;;;;;3.40;3.40;30.90;99.90;;;;;;4850535;29;9039;-73
2022/07/28 03:23:17;;;;;;;;;2.00;2.00;30.90;99.90;;;;;;4850717;29;8834;-72
2022/07/28 03:25:52;;;;;;;;;2.60;2.60;30.90;99.90;;;;;;4851426;29;8864;-72
2022/07/28 03:28:24;;;;;;;;;2.20;2.20;30.80;99.90;;;;;;4850477;29;8881;-71
2022/07/28 03:31:02;;;;;;;;;2.00;2.00;30.80;99.90;;;;;;4848607;29;8872;-71
2022/07/28 03:33:34;;;;;;;;;2.40;2.00;30.90;99.90;;;;;;4850016;29;8885;-71
2022/07/28 03:36:13;;;;;;;;;3.80;2.80;30.90;99.90;;;;;;4850044;29;8834;-70
2022/07/28 03:38:55;;;;;;;;;4.20;2.00;30.70;99.90;;;;;;4849887;29;8862;-70
2022/07/28 03:41:28;;;;;;;;;2.00;2.00;30.70;99.90;;;;;;4850090;29;8877;-70
2022/07/28 03:44:01;;;;;;;;;1.60;1.20;30.80;99.90;;;;;;4847178;29;8920;-71
2022/07/28 03:46:33;;;;;;;;;3.00;3.00;30.70;99.90;;;;;;4850279;29;8853;-71
2022/07/28 03:49:11;;;;;;;;;2.00;1.00;30.70;99.90;;;;;;4850794;29;8884;-70
2022/07/28 03:51:43;;;;;;;;;3.60;3.00;30.60;99.90;;;;;;4828993;29;8868;-70
2022/07/28 03:54:15;;;;;;;;;4.00;3.00;30.50;99.90;;;;;;4844871;29;8854;-71
2022/07/28 03:56:45;;;;;;;;;2.60;2.60;30.60;99.90;;;;;;4842537;29;8869;-71
2022/07/28 03:59:16;;;;;;;;;4.20;3.00;30.60;99.90;;;;;;4837681;29;8865;-71
2022/07/28 04:01:47;;;;;;;;;3.40;3.40;30.50;99.90;;;;;;4847995;29;8830;-71
2022/07/28 04:04:18;;;;;;;;;2.80;2.80;30.60;99.90;;;;;;4850842;29;8892;-70
2022/07/28 04:06:49;;;;;;;;;2.80;2.80;30.50;99.90;;;;;;4845664;29;8889;-73
2022/07/28 04:09:23;;;;;;;;;3.60;3.60;30.50;99.90;;;;;;4848110;29;8849;-72
2022/07/28 04:11:53;;;;;;;;;4.60;3.00;30.40;99.90;;;;;;4843060;29;8853;-71
2022/07/28 04:14:26;;;;;;;;;3.00;3.00;30.40;99.90;;;;;;4845031;29;8869;-71
2022/07/28 04:16:58;;;;;;;;;4.80;3.40;30.40;99.90;;;;;;4844780;29;8901;-71
2022/07/28 04:19:31;;;;;;;;;4.40;3.40;30.40;99.90;;;;;;4843357;29;9556;-70
2022/07/28 04:22:00;;;;;;;;;3.00;3.00;30.40;99.90;;;;;;4844830;29;8877;-72
2022/07/28 04:24:31;;;;;;;;;3.00;3.00;30.30;99.90;;;;;;4841366;29;8861;-70
2022/07/28 04:27:02;;;;;;;;;2.00;2.00;30.30;99.90;;;;;;4845403;29;8865;-70
2022/07/28 04:29:33;;;;;;;;;4.80;3.40;30.20;99.90;;;;;;4845221;29;8861;-71
2022/07/28 04:32:07;;;;;;;;;4.00;4.00;30.20;99.90;;;;;;4852932;29;8893;-71
2022/07/28 04:34:37;;;;;;;;;3.60;3.60;30.20;99.90;;;;;;4846800;29;9203;-71
2022/07/28 04:37:08;;;;;;;;;3.60;2.80;30.10;99.90;;;;;;4841255;29;8869;-73
2022/07/28 04:39:38;;;;;;;;;4.00;4.00;30.20;99.90;;;;;;4842675;29;8889;-72
2022/07/28 04:42:11;;;;;;;;;3.20;3.20;30.00;99.90;;;;;;4841902;29;8901;-71
2022/07/28 04:44:42;;;;;;;;;6.00;6.00;30.00;99.90;;;;;;4844484;29;9655;-71
2022/07/28 04:47:13;;;;;;;;;6.00;5.00;29.90;99.90;;;;;;4842851;29;8904;-71
2022/07/28 04:49:46;;;;;;;;;5.40;5.40;30.00;99.90;;;;;;4844473;29;8873;-71
2022/07/28 04:52:17;;;;;;;;;4.80;4.80;30.00;99.90;;;;;;4838147;29;8865;-72
2022/07/28 04:54:50;;;;;;;;;6.00;5.00;29.80;99.90;;;;;;4846124;29;8889;-71
2022/07/28 04:57:20;;;;;;;;;8.60;6.60;29.90;99.90;;;;;;4845898;29;8916;-72
2022/07/28 04:59:54;;;;;;;;;6.00;6.00;29.80;99.90;;;;;;4848071;29;8877;-71
2022/07/28 05:02:27;;;;;;;;;9.60;8.60;29.80;99.90;;;;;;4848053;29;8865;-70
2022/07/28 05:04:58;;;;;;;;;8.40;7.60;29.80;99.90;;;;;;4842740;29;8869;-71
2022/07/28 05:07:29;;;;;;;;;7.60;7.60;29.80;99.90;;;;;;4849983;29;8877;-71
2022/07/28 05:10:00;;;;;;;;;11.40;8.00;29.80;99.90;;;;;;4850147;29;8867;-73
2022/07/28 05:12:31;;;;;;;;;6.00;5.20;29.80;99.90;;;;;;4845706;29;8881;-71
2022/07/28 05:15:04;;;;;;;;;5.00;5.00;29.80;99.90;;;;;;4844334;29;9635;-71
2022/07/28 05:17:37;;;;;;;;;8.80;8.00;29.80;99.90;;;;;;4849596;29;8904;-71
2022/07/28 05:20:08;;;;;;;;;7.40;7.40;29.80;99.90;;;;;;4864523;29;8910;-70
2022/07/28 05:22:47;;;;;;;;;14.40;12.60;29.70;99.90;;;;;;4845488;29;8892;-72
2022/07/28 05:25:22;;;;;;;;;11.80;11.00;29.70;99.90;;;;;;4846901;29;8853;-72
2022/07/28 05:27:56;;;;;;;;;14.25;13.75;29.60;99.90;;;;;;4847329;29;9034;-72
2022/07/28 05:30:28;;;;;;;;;12.50;12.50;29.50;99.90;;;;;;4850700;29;8891;-70
2022/07/28 05:33:08;;;;;;;;;7.60;7.60;29.50;99.90;;;;;;4850296;29;8869;-71
2022/07/28 05:35:50;;;;;;;;;9.80;9.80;29.50;99.90;;;;;;4829295;29;8997;-72
2022/07/28 05:38:35;;;;;;;;;11.00;11.00;29.40;99.90;;;;;;4844088;29;8881;-71
2022/07/28 05:41:18;;;;;;;;;11.00;11.00;29.40;99.90;;;;;;4833540;29;8903;-70
2022/07/28 05:43:51;;;;;;;;;9.00;9.00;29.40;99.90;;;;;;4827119;29;8865;-72
2022/07/28 05:46:22;;;;;;;;;3.50;3.25;29.40;99.90;;;;;;4847637;29;9934;-71
2022/07/28 05:48:53;;;;;;;;;12.25;12.25;29.20;99.90;;;;;;4847728;29;8979;-72
2022/07/28 05:51:23;;;;;;;;;11.60;11.60;29.30;99.90;;;;;;4847790;29;9619;-72
2022/07/28 05:53:53;;;;;;;;;10.50;10.25;29.20;99.90;;;;;;4844235;29;8867;-72
2022/07/28 05:56:24;;;;;;;;;12.50;12.50;29.10;99.90;;;;;;4847357;29;8865;-72
2022/07/28 05:58:56;;;;;;;;;13.50;13.50;29.20;99.90;;;;;;4847135;29;8876;-72
2022/07/28 06:01:28;;;;;;;;;11.80;10.00;29.20;99.90;;;;;;4846119;29;8838;-72
2022/07/28 06:03:58;;;;;;;;;10.20;10.20;29.30;99.90;;;;;;4846437;29;8869;-72
2022/07/28 06:06:49;;;;;;;;;10.40;9.40;29.10;99.90;;;;;;4834071;29;8923;-72
2022/07/28 06:09:30;;;;;;;;;8.60;8.60;29.00;99.90;;;;;;4847105;29;8888;-71
2022/07/28 06:12:01;;;;;;;;;8.40;7.40;29.10;99.90;;;;;;4845254;29;9596;-71
2022/07/28 06:14:34;;;;;;;;;10.20;9.20;28.90;99.90;;;;;;4849096;29;8884;-72
2022/07/28 06:17:07;;;;;;;;;8.60;8.60;29.00;99.90;;;;;;4845984;29;8889;-71
2022/07/28 06:19:37;;;;;;;;;10.20;7.60;29.00;99.90;;;;;;4848461;29;9916;-71
2022/07/28 06:22:09;;;;;;;;;7.00;6.80;28.80;99.90;;;;;;4847228;29;8857;-71
2022/07/28 06:24:39;;;;;;;;;7.80;7.00;28.70;99.90;;;;;;4843878;29;8889;-71
2022/07/28 06:27:10;;;;;;;;;7.40;7.40;28.70;99.90;;;;;;4864058;29;8900;-71
2022/07/28 06:29:43;;;;;;;;;7.20;7.20;28.70;99.90;;;;;;4845017;29;8884;-71
2022/07/28 06:32:15;;;;;;;;;6.00;6.00;28.70;99.90;;;;;;4852319;29;8889;-71
2022/07/28 06:34:46;;;;;;;;;0.40;0.00;28.60;99.90;;;;;;4849066;29;8891;-72
2022/07/28 06:37:16;;;;;;;;;8.00;6.80;28.60;99.90;;;;;;4845285;29;8948;-70
2022/07/28 06:39:48;;;;;;;;;5.40;5.40;28.50;99.90;;;;;;4830504;29;8862;-71
2022/07/28 06:42:21;;;;;;;;;6.20;6.20;28.50;99.90;;;;;;4849468;29;8847;-70
2022/07/28 06:44:54;;;;;;;;;3.00;3.00;28.40;99.90;;;;;;4850670;29;8884;-72
2022/07/28 06:47:28;;;;;;;;;7.60;6.00;28.40;99.90;;;;;;4849200;29;8908;-72
2022/07/28 06:50:02;;;;;;;;;5.40;5.40;28.40;99.90;;;;;;4848810;29;8849;-72
2022/07/28 06:52:35;;;;;;;;;6.00;6.00;28.50;99.90;;;;;;4845219;29;8829;-72
2022/07/28 06:55:06;;;;;;;;;4.00;3.00;28.40;99.90;;;;;;4845847;29;8885;-72
2022/07/28 06:57:39;;;;;;;;;6.00;6.00;28.40;99.90;;;;;;4836779;29;8931;-72
2022/07/28 07:00:12;;;;;;;;;4.00;4.00;28.40;99.90;;;;;;4836859;29;8865;-72
2022/07/28 07:02:43;;;;;;;;;5.60;5.60;28.30;99.90;;;;;;4844722;29;8859;-72
2022/07/28 07:05:14;;;;;;;;;4.40;4.00;28.30;99.90;;;;;;4850146;29;8908;-72
2022/07/28 07:07:46;;;;;;;;;4.20;4.20;28.20;99.90;;;;;;4850910;29;8885;-72
2022/07/28 07:10:17;;;;;;;;;6.00;6.00;28.30;99.90;;;;;;4852704;29;8908;-73
2022/07/28 07:12:50;;;;;;;;;4.40;4.40;28.20;99.90;;;;;;4835417;29;8900;-72
2022/07/28 07:15:20;;;;;;;;;4.60;4.60;28.10;99.90;;;;;;4850089;29;8878;-72
2022/07/28 07:17:55;;;;;;;;;4.00;4.00;28.20;99.90;;;;;;4850201;29;9601;-72
2022/07/28 07:20:30;;;;;;;;;4.00;4.00;28.20;99.90;;;;;;4850472;29;8874;-72
2022/07/28 07:23:02;;;;;;;;;5.40;5.40;28.20;99.90;;;;;;4830083;29;8861;-72
2022/07/28 07:25:34;;;;;;;;;4.40;4.40;28.10;99.90;;;;;;4836858;29;8884;-72
2022/07/28 07:28:05;;;;;;;;;4.80;4.80;28.10;99.90;;;;;;4829894;29;8896;-72
2022/07/28 07:30:36;;;;;;;;;5.20;5.20;28.00;99.90;;;;;;4851330;29;8882;-72
2022/07/28 07:33:10;;;;;;;;;4.20;4.20;28.00;99.90;;;;;;4847324;29;8849;-72
2022/07/28 07:35:44;;;;;;;;;5.00;5.00;28.00;99.90;;;;;;4845680;29;8842;-72
2022/07/28 07:38:16;;;;;;;;;3.60;3.40;28.00;99.90;;;;;;4847815;29;8905;-72
2022/07/28 07:40:49;;;;;;;;;4.00;4.00;27.90;99.90;;;;;;4851817;29;8888;-72
2022/07/28 07:43:27;;;;;;;;;2.80;2.80;27.90;99.90;;;;;;4848000;29;8924;-72
2022/07/28 07:45:57;;;;;;;;;3.00;3.00;27.80;99.90;;;;;;4844489;29;8868;-71
2022/07/28 07:48:27;;;;;;;;;4.00;4.00;27.80;99.90;;;;;;4849477;29;8891;-72
2022/07/28 07:50:59;;;;;;;;;4.00;4.00;27.90;99.90;;;;;;4854241;29;8869;-71
2022/07/28 07:53:31;;;;;;;;;5.40;4.60;27.80;99.90;;;;;;4857299;29;8872;-72
2022/07/28 07:56:04;;;;;;;;;3.80;3.80;27.80;99.90;;;;;;4848089;29;8868;-72
2022/07/28 07:58:35;;;;;;;;;5.00;4.00;27.70;99.90;;;;;;4862109;29;9629;-72
2022/07/28 08:01:08;;;;;;;;;0.40;0.40;27.60;99.90;;;;;;4849648;29;8837;-71
2022/07/28 08:03:41;;;;;;;;;5.00;4.40;27.60;99.90;;;;;;4855458;29;8853;-72
2022/07/28 08:06:11;;;;;;;;;2.20;2.20;27.60;99.90;;;;;;4847020;29;9902;-72
2022/07/28 08:08:44;;;;;;;;;3.80;3.80;27.70;99.90;;;;;;4864049;29;9659;-72
2022/07/28 08:11:20;;;;;;;;;4.20;4.20;27.60;99.90;;;;;;4852670;29;8842;-72
2022/07/28 08:13:51;;;;;;;;;3.00;3.00;27.60;99.90;;;;;;4848183;29;9624;-72
2022/07/28 08:16:21;;;;;;;;;3.40;3.40;27.70;99.90;;;;;;4850557;29;8883;-71
2022/07/28 08:18:56;;;;;;;;;4.00;4.00;27.60;99.90;;;;;;4837835;29;8875;-72
2022/07/28 08:21:29;;;;;;;;;4.00;4.00;27.50;99.90;;;;;;4813563;29;8866;-72
2022/07/28 08:23:59;;;;;;;;;2.00;2.00;27.40;99.90;;;;;;4849169;29;8861;-72
2022/07/28 08:26:30;;;;;;;;;2.00;2.00;27.40;99.90;;;;;;4848071;29;11602;-71
2022/07/28 08:29:00;;;;;;;;;1.00;1.00;27.40;99.90;;;;;;4849800;29;8869;-71
2022/07/28 08:31:34;;;;;;;;;5.80;3.00;27.30;99.90;;;;;;4845639;29;8870;-72
2022/07/28 08:34:05;;;;;;;;;3.40;3.40;27.30;99.90;;;;;;4846941;29;9883;-71
2022/07/28 08:37:01;;;;;;;;;4.75;4.75;27.30;99.90;;;;;;4851230;29;8907;-71
2022/07/28 08:39:33;;;;;;;;;3.20;3.20;27.30;99.90;;;;;;4850985;29;8857;-71
2022/07/28 08:42:14;;;;;;;;;3.25;3.25;27.30;99.90;;;;;;4846617;29;8857;-72
2022/07/28 08:44:57;;;;;;;;;2.75;2.75;27.20;99.90;;;;;;4851009;29;8866;-71
2022/07/28 08:47:35;;;;;;;;;4.25;4.25;27.10;99.90;;;;;;4847359;29;8897;-71
2022/07/28 08:50:25;;;;;;;;;5.25;3.50;27.10;99.90;;;;;;4849508;29;8845;-71
2022/07/28 08:53:00;;;;;;;;;4.00;4.00;27.10;99.90;;;;;;4848445;29;9588;-71
2022/07/28 08:55:31;;;;;;;;;1.00;1.00;27.00;99.90;;;;;;4831627;29;8881;-71
2022/07/28 08:58:02;;;;;;;;;3.75;3.75;27.00;99.90;;;;;;4846253;29;8841;-71
2022/07/28 09:00:34;;;;;;;;;3.50;3.50;26.90;99.90;;;;;;4846755;29;8976;-72
2022/07/28 09:03:05;;;;;;;;;3.50;3.50;26.90;99.90;;;;;;4852019;29;8865;-71
2022/07/28 09:05:42;;;;;;;;;5.25;4.75;26.80;99.90;;;;;;4850458;29;8861;-72
2022/07/28 09:08:16;;;;;;;;;3.00;3.00;26.90;99.90;;;;;;4851206;29;8891;-71
2022/07/28 09:10:48;;;;;;;;;3.50;3.50;26.90;99.90;;;;;;4851313;29;8912;-72
2022/07/28 09:13:19;;;;;;;;;4.50;4.50;27.00;99.90;;;;;;4849798;29;8893;-71
2022/07/28 09:15:53;;;;;;;;;4.00;4.00;26.90;99.90;;;;;;4844129;29;8873;-71
2022/07/28 09:18:26;;;;;;;;;5.00;3.00;27.00;99.90;;;;;;4846442;29;8865;-71
2022/07/28 09:20:56;;;;;;;;;3.50;3.50;26.90;99.90;;;;;;4833442;29;8905;-72
2022/07/28 09:23:45;;;;;;;;;4.00;4.00;26.80;99.90;;;;;;4833214;29;8862;-72
2022/07/28 09:26:16;;;;;;;;;2.75;2.75;26.70;99.90;;;;;;4851144;29;8841;-71
2022/07/28 09:28:51;;;;;;;;;2.20;2.20;26.70;99.90;;;;;;4846067;29;9628;-71
2022/07/28 09:31:25;;;;;;;;;2.50;2.50;26.70;99.90;;;;;;4825032;29;8872;-71
2022/07/28 09:33:59;;;;;;;;;4.50;4.50;26.70;99.90;;;;;;4849559;29;8845;-71
2022/07/28 09:36:38;;;;;;;;;4.00;4.00;26.60;99.90;;;;;;4843242;29;8911;-72
2022/07/28 09:39:09;;;;;;;;;3.00;3.00;26.50;99.90;;;;;;4854686;29;8849;-73
2022/07/28 09:41:54;;;;;;;;;4.75;4.75;26.60;99.90;;;;;;4850517;29;8872;-72
2022/07/28 09:44:27;;;;;;;;;2.25;2.25;26.70;99.90;;;;;;4842236;29;8895;-72
2022/07/28 09:47:21;;;;;;;;;3.00;3.00;26.70;99.90;;;;;;4831577;29;8912;-71
2022/07/28 09:49:52;;;;;;;;;4.50;4.50;26.60;99.90;;;;;;4853246;29;8842;-71
2022/07/28 09:52:44;;;;;;;;;4.25;4.25;26.50;99.90;;;;;;4852038;29;8888;-71
2022/07/28 09:55:18;;;;;;;;;4.00;4.00;26.50;99.90;;;;;;4842981;29;8861;-72
2022/07/28 09:57:49;;;;;;;;;3.75;3.75;26.50;99.90;;;;;;4860613;29;8861;-71
2022/07/28 10:00:29;;;;;;;;;3.00;3.00;26.40;99.90;;;;;;4849968;29;8869;-71
2022/07/28 10:02:59;;;;;;;;;3.50;3.50;26.40;99.90;;;;;;4864208;29;9012;-71
2022/07/28 10:05:40;;;;;;;;;5.25;5.25;26.40;99.90;;;;;;4845732;29;8861;-71
2022/07/28 10:08:10;;;;;;;;;4.50;4.50;26.40;99.90;;;;;;4847407;29;8861;-72
2022/07/28 10:10:42;;;;;;;;;3.75;3.75;26.40;99.90;;;;;;4854830;29;8873;-72
2022/07/28 10:13:17;;;;;;;;;4.00;4.00;26.30;99.90;;;;;;4850103;29;8862;-73
2022/07/28 10:16:11;;;;;;;;;3.50;3.50;26.20;99.90;;;;;;4851058;29;8849;-71
2022/07/28 10:18:41;;;;;;;;;5.00;5.00;26.20;99.90;;;;;;4847597;29;8880;-71
2022/07/28 10:21:15;;;;;;;;;4.00;4.00;26.20;99.90;;;;;;4831073;29;9592;-72
2022/07/28 10:23:53;;;;;;;;;4.00;4.00;26.20;99.90;;;;;;4848759;29;9966;-69
2022/07/28 10:26:52;;;;;;;;;4.50;3.25;26.20;99.90;;;;;;4848642;29;8833;-70
2022/07/28 10:29:26;;;;;;;;;3.50;3.50;26.10;99.90;;;;;;4840165;29;8913;-72
2022/07/28 10:32:06;;;;;;;;;4.25;4.25;26.20;99.90;;;;;;4848867;29;9541;-71
2022/07/28 10:34:45;;;;;;;;;4.00;4.00;26.10;99.90;;;;;;4837033;29;8845;-71
2022/07/28 10:37:26;;;;;;;;;5.00;4.00;26.10;99.90;;;;;;4852417;29;8853;-72
2022/07/28 10:40:07;;;;;;;;;6.00;5.00;26.10;99.90;;;;;;4854254;29;8869;-71
2022/07/28 10:42:39;;;;;;;;;4.75;4.75;26.10;99.90;;;;;;4837538;29;8866;-71
2022/07/28 10:45:12;;;;;;;;;5.00;5.00;26.20;99.90;;;;;;4833653;29;8873;-71
2022/07/28 10:47:43;;;;;;;;;4.00;4.00;26.10;99.90;;;;;;4849086;29;9655;-71
2022/07/28 10:50:13;;;;;;;;;5.00;5.00;26.10;99.90;;;;;;4849837;29;8908;-72
2022/07/28 10:52:45;;;;;;;;;5.00;5.00;26.10;99.90;;;;;;4836694;29;8880;-71
2022/07/28 10:55:32;;;;;;;;;5.00;5.00;26.10;99.90;;;;;;4859349;29;8873;-71
2022/07/28 10:58:41;;;;;;;;;5.00;5.00;26.10;99.90;;;;;;4853769;29;8846;-71
2022/07/28 11:01:36;;;;;;;;;4.75;4.75;26.00;99.90;;;;;;4832044;29;8881;-71
2022/07/28 11:04:46;;;;;;;;;3.25;3.25;26.10;99.90;;;;;;4854738;29;8861;-71
2022/07/28 11:07:19;;;;;;;;;5.25;5.25;26.00;99.90;;;;;;4848796;29;10283;-72
2022/07/28 11:09:53;;;;;;;;;5.00;4.75;25.90;99.90;;;;;;4852653;29;8905;-72
2022/07/28 11:12:47;;;;;;;;;5.00;5.00;26.00;99.90;;;;;;4845831;29;9567;-71
2022/07/28 11:15:37;;;;;;;;;5.00;5.00;26.10;99.90;;;;;;4848616;29;8899;-72
2022/07/28 11:18:09;;;;;;;;;7.00;7.00;26.00;99.90;;;;;;4854481;29;8825;-72
2022/07/28 11:20:58;;;;;;;;;5.50;5.50;26.00;99.90;;;;;;4853279;29;8869;-72
2022/07/28 11:23:42;;;;;;;;;5.00;5.00;26.10;99.90;;;;;;4857405;29;8885;-72
2022/07/28 11:26:22;;;;;;;;;8.00;8.00;26.00;99.90;;;;;;4853753;29;8833;-71
2022/07/28 11:29:02;;;;;;;;;6.00;6.00;26.10;99.90;;;;;;4838518;29;8874;-71
2022/07/28 11:31:46;;;;;;;;;4.75;4.75;26.00;99.90;;;;;;4846034;29;8845;-71
2022/07/28 11:34:18;;;;;;;;;5.00;5.00;26.00;99.90;;;;;;4847053;29;8862;-71
2022/07/28 11:37:10;;;;;;;;;5.75;5.75;25.90;99.90;;;;;;4846528;29;8873;-71
2022/07/28 11:39:44;;;;;;;;;5.00;5.00;25.90;99.90;;;;;;4836362;29;8884;-72
2022/07/28 11:42:31;;;;;;;;;4.75;4.75;25.90;99.90;;;;;;4847239;29;8886;-71
2022/07/28 11:45:23;;;;;;;;;5.00;4.25;25.80;99.90;;;;;;4850904;29;8936;-71
2022/07/28 11:48:23;;;;;;;;;5.00;5.00;25.80;99.90;;;;;;4852775;29;9634;-73
2022/07/28 11:51:03;;;;;;;;;5.00;5.00;25.90;99.90;;;;;;4849651;29;8881;-71
2022/07/28 11:53:53;;;;;;;;;4.00;4.00;25.90;99.90;;;;;;4849246;29;8891;-71
2022/07/28 11:56:27;;;;;;;;;4.25;4.25;25.90;99.90;;;;;;4863071;29;8918;-71
2022/07/28 11:59:04;;;;;;;;;6.25;6.25;25.90;99.90;;;;;;4846165;29;8860;-71
2022/07/28 12:01:35;;;;;;;;;5.00;5.00;25.90;99.90;;;;;;4850750;29;9004;-72
2022/07/28 12:04:10;;;;;;;;;6.00;4.50;25.80;99.90;;;;;;4847633;29;8881;-71
2022/07/28 12:06:46;;;;;;;;;4.25;4.25;25.80;99.90;;;;;;4844795;29;8917;-71
2022/07/28 12:09:32;;;;;;;;;5.00;5.00;25.90;99.90;;;;;;4832352;29;8881;-71
2022/07/28 12:12:11;;;;;;;;;5.75;5.75;25.90;99.90;;;;;;4843915;29;8906;-71
2022/07/28 12:14:42;;;;;;;;;4.25;4.25;25.90;99.90;;;;;;4847989;29;8876;-71
2022/07/28 12:17:13;;;;;;;;;5.75;5.75;25.90;99.90;;;;;;4844364;29;8920;-72
2022/07/28 12:19:45;;;;;;;;;4.00;4.00;25.90;99.90;;;;;;4848104;29;8908;-72
2022/07/28 12:22:15;;;;;;;;;4.50;4.50;25.90;99.90;;;;;;4846470;29;8880;-72
2022/07/28 12:24:47;;;;;;;;;5.00;5.00;25.80;99.90;;;;;;4845800;29;8869;-71
2022/07/28 12:27:26;;;;;;;;;6.25;6.25;25.90;99.90;;;;;;4848279;29;8865;-71
2022/07/28 12:30:03;;;;;;;;;4.75;4.75;25.90;99.90;;;;;;4847747;29;8903;-71
2022/07/28 12:32:37;;;;;;;;;5.00;5.00;25.90;99.90;;;;;;4845541;29;8907;-72
2022/07/28 12:35:08;;;;;;;;;5.00;5.00;26.00;99.90;;;;;;4846580;29;8838;-72
2022/07/28 12:37:42;;;;;;;;;7.75;6.00;26.00;99.90;;;;;;4843956;29;8873;-71
2022/07/28 12:40:14;;;;;;;;;5.00;4.00;26.00;99.90;;;;;;4844870;29;8919;-71
2022/07/28 12:42:56;;;;;;;;;4.25;4.25;26.00;99.90;;;;;;4843964;29;8875;-72
2022/07/28 12:45:32;;;;;;;;;6.75;5.75;26.00;99.90;;;;;;4844816;29;8908;-71
2022/07/28 12:48:13;;;;;;;;;6.00;6.00;26.10;99.90;;;;;;4858165;29;8865;-71
2022/07/28 12:50:44;;;;;;;;;2.50;2.50;26.20;99.90;;;;;;4856514;29;8833;-71
2022/07/28 12:53:21;;;;;;;;;4.00;4.00;26.20;99.90;;;;;;4852482;29;8869;-71
2022/07/28 12:56:01;;;;;;;;;4.75;4.75;26.20;99.90;;;;;;4847023;29;8862;-71
2022/07/28 12:58:31;;;;;;;;;4.75;4.75;26.30;99.90;;;;;;4863831;29;8895;-71
2022/07/28 13:01:07;;;;;;;;;7.25;6.00;26.30;99.90;;;;;;4849853;29;8842;-71
2022/07/28 13:03:46;;;;;;;;;5.00;5.00;26.30;99.90;;;;;;4850816;29;8884;-71
2022/07/28 13:06:22;;;;;;;;;6.00;4.75;26.20;99.90;;;;;;4820256;29;8917;-71
2022/07/28 13:08:54;;;;;;;;;3.00;3.00;26.30;99.90;;;;;;4847862;29;8868;-71
2022/07/28 13:11:30;;;;;;;;;4.00;4.00;26.30;99.90;;;;;;4849509;29;8869;-71
2022/07/28 13:14:18;;;;;;;;;6.00;6.00;26.40;99.90;;;;;;4848441;29;8830;-71
2022/07/28 13:16:58;;;;;;;;;4.00;4.00;26.40;99.90;;;;;;4846605;29;8892;-71
2022/07/28 13:19:28;;;;;;;;;5.75;5.75;26.50;99.90;;;;;;4845687;29;8879;-71
2022/07/28 13:22:07;;;;;;;;;6.00;6.00;26.60;99.90;;;;;;4849779;29;8853;-71
2022/07/28 13:24:37;;;;;;;;;6.00;6.00;26.60;99.90;;;;;;4835637;29;8857;-71
2022/07/28 13:27:09;;;;;;;;;8.00;7.00;26.70;99.90;;;;;;4852633;29;8892;-72
2022/07/28 13:29:39;;;;;;;;;5.25;5.25;26.80;99.90;;;;;;4849555;29;8877;-71
2022/07/28 13:32:11;;;;;;;;;5.00;5.00;26.70;99.90;;;;;;4835599;29;8893;-71
2022/07/28 13:34:43;;;;;;;;;3.25;3.25;26.80;99.90;;;;;;4839337;29;8936;-72
2022/07/28 13:37:15;;;;;;;;;4.00;4.00;27.00;99.90;;;;;;4845099;29;8860;-72
2022/07/28 13:39:51;;;;;;;;;5.00;5.00;27.00;99.90;;;;;;4849160;29;8833;-72
2022/07/28 13:42:23;;;;;;;;;6.25;6.25;27.00;99.90;;;;;;4847069;29;8916;-72
2022/07/28 13:44:58;;;;;;;;;5.75;5.75;27.10;99.90;;;;;;4847433;29;9887;-72
2022/07/28 13:47:32;;;;;;;;;5.00;5.00;27.10;99.90;;;;;;4846867;29;8912;-72